Terminal Aerodrome Forecast
Issued by NWS Jackson, KY

Home | Current Version | Previous Version | Text Only | Print | Product List | Glossary On
Versions: 1 2 3 4 5 6 7 8 9 10 11 12 13 14 15
603
FTUS43 KJKL 151120
TAFJKL
TAF
KJKL 151120Z 1512/1612 19003KT 6SM -SN OVC045
     FM151300 20005KT P6SM SCT045 BKN080
     FM151900 21009G14KT P6SM SCT045 BKN100
     FM160400 26006KT 3SM -SN OVC015=

USA.gov is the U.S. government's official web portal to all federal, state and local government web resources and services.